Cedar City Regional Airport Cedar City US
ICAO: KCDC
IATA: CDC
Category: Medium
Scheduled Services: Yes

Elevation: 5622 ft
TransAlt. 18000 ft.

Airport Communications:
ASOS:119.025
CTAF:123.6
RDO:122.2
UNICOM:122.95

KCDC Zoom In..

Runways:

(A) RW 02 length 8653 ft width 150 ft
---- / hdg 20

(B) RW 08 length 4822 ft width 60 ft
---- / hdg 83

(C) RW 20 length 8653 ft width 150 ft
ILS 110.10 / hdg 200

(D) RW 26 length 4822 ft width 60 ft
---- / hdg 263

Location; KCDC
Day. 04 / Time. 16.53 Zulu
* Altimeter: 30.40
* Temperature: -03° c. -26.6°f.
* Wind from: 070° Speed 04 kn.
Dewpoint: -16° c.
Visibility: 10 Statute Miles.
Clouds: Clear (automated report).

KCDC 041653Z AUTO 07004KT 10SM CLR M03/M16 A3040 RMK AO2 SLP328 T10331156

Going to: --> -->


Wind From 070°
Speed 04 kn.

 
 
jpsmedia worldairports.se 2020   terms of use